sensor_id;sensor_type;location;lat;lon;timestamp;P1;P2;P0
23240;PMS7003;11789;53.482;9.862;2023-09-18T00:00:49;25.00;23.25;16.25
23240;PMS7003;11789;53.482;9.862;2023-09-18T00:03:18;24.75;24.75;17.00
23240;PMS7003;11789;53.482;9.862;2023-09-18T00:05:48;19.50;19.50;15.75
23240;PMS7003;11789;53.482;9.862;2023-09-18T00:08:14;22.00;22.00;16.00
23240;PMS7003;11789;53.482;9.862;2023-09-18T00:10:40;26.25;23.50;16.75
23240;PMS7003;11789;53.482;9.862;2023-09-18T00:13:07;21.75;21.75;16.50
23240;PMS7003;11789;53.482;9.862;2023-09-18T00:15:36;24.75;23.00;17.75
23240;PMS7003;11789;53.482;9.862;2023-09-18T00:18:03;18.50;18.00;14.25
23240;PMS7003;11789;53.482;9.862;2023-09-18T00:20:29;23.25;19.75;15.00
23240;PMS7003;11789;53.482;9.862;2023-09-18T00:22:54;22.25;19.25;14.75
23240;PMS7003;11789;53.482;9.862;2023-09-18T00:25:21;18.50;18.50;14.75
23240;PMS7003;11789;53.482;9.862;2023-09-18T00:27:47;24.25;24.25;16.25
23240;PMS7003;11789;53.482;9.862;2023-09-18T00:30:12;21.00;21.00;15.75
23240;PMS7003;11789;53.482;9.862;2023-09-18T00:32:38;22.50;21.50;15.75
23240;PMS7003;11789;53.482;9.862;2023-09-18T00:35:03;22.00;22.00;14.75
23240;PMS7003;11789;53.482;9.862;2023-09-18T00:37:31;24.50;24.25;17.25
23240;PMS7003;11789;53.482;9.862;2023-09-18T00:39:56;16.75;16.75;14.50
23240;PMS7003;11789;53.482;9.862;2023-09-18T00:42:22;22.50;21.00;15.00
23240;PMS7003;11789;53.482;9.862;2023-09-18T00:44:49;21.50;20.00;15.00
23240;PMS7003;11789;53.482;9.862;2023-09-18T00:47:15;23.50;21.50;16.75
23240;PMS7003;11789;53.482;9.862;2023-09-18T00:49:43;22.00;19.75;14.75
23240;PMS7003;11789;53.482;9.862;2023-09-18T00:52:11;20.25;19.00;14.75
23240;PMS7003;11789;53.482;9.862;2023-09-18T00:54:37;20.50;20.50;15.75
23240;PMS7003;11789;53.482;9.862;2023-09-18T00:57:05;19.00;17.00;13.25
23240;PMS7003;11789;53.482;9.862;2023-09-18T00:59:31;23.00;22.00;15.25
23240;PMS7003;11789;53.482;9.862;2023-09-18T01:01:58;18.75;18.75;15.50
23240;PMS7003;11789;53.482;9.862;2023-09-18T01:04:24;21.00;19.00;14.75
23240;PMS7003;11789;53.482;9.862;2023-09-18T01:06:53;26.00;19.50;16.00
23240;PMS7003;11789;53.482;9.862;2023-09-18T01:09:21;22.50;21.25;16.25
23240;PMS7003;11789;53.482;9.862;2023-09-18T01:12:08;23.25;22.00;15.00
23240;PMS7003;11789;53.482;9.862;2023-09-18T01:14:37;19.25;19.25;14.50
23240;PMS7003;11789;53.482;9.862;2023-09-18T01:17:10;17.75;17.75;12.75
23240;PMS7003;11789;53.482;9.862;2023-09-18T01:19:40;24.50;23.00;15.75
23240;PMS7003;11789;53.482;9.862;2023-09-18T01:22:08;25.00;21.75;16.25
23240;PMS7003;11789;53.482;9.862;2023-09-18T01:24:35;21.25;18.50;13.75
23240;PMS7003;11789;53.482;9.862;2023-09-18T01:27:03;21.00;20.25;14.50
23240;PMS7003;11789;53.482;9.862;2023-09-18T01:29:29;22.75;19.00;15.00
23240;PMS7003;11789;53.482;9.862;2023-09-18T01:31:56;21.50;21.50;15.25
23240;PMS7003;11789;53.482;9.862;2023-09-18T01:34:25;21.00;21.00;15.00
23240;PMS7003;11789;53.482;9.862;2023-09-18T01:36:53;20.50;20.50;14.50
23240;PMS7003;11789;53.482;9.862;2023-09-18T01:39:22;18.00;18.00;14.00
23240;PMS7003;11789;53.482;9.862;2023-09-18T01:41:49;20.25;18.25;15.00
23240;PMS7003;11789;53.482;9.862;2023-09-18T01:44:15;19.75;19.75;14.75
23240;PMS7003;11789;53.482;9.862;2023-09-18T01:46:41;22.75;20.50;15.25
23240;PMS7003;11789;53.482;9.862;2023-09-18T01:49:08;22.50;21.75;16.00
23240;PMS7003;11789;53.482;9.862;2023-09-18T01:51:34;22.50;20.75;15.25
23240;PMS7003;11789;53.482;9.862;2023-09-18T01:54:00;24.25;22.50;15.25
23240;PMS7003;11789;53.482;9.862;2023-09-18T01:56:26;24.00;22.75;15.50
23240;PMS7003;11789;53.482;9.862;2023-09-18T01:58:51;18.50;18.50;13.50
23240;PMS7003;11789;53.482;9.862;2023-09-18T02:01:26;20.50;18.25;12.75
23240;PMS7003;11789;53.482;9.862;2023-09-18T02:03:51;19.25;19.25;13.75
23240;PMS7003;11789;53.482;9.862;2023-09-18T02:06:17;22.25;22.25;14.75
23240;PMS7003;11789;53.482;9.862;2023-09-18T02:08:42;19.25;19.00;14.75
23240;PMS7003;11789;53.482;9.862;2023-09-18T02:11:07;21.50;21.00;13.50
23240;PMS7003;11789;53.482;9.862;2023-09-18T02:13:33;21.00;20.75;15.25
23240;PMS7003;11789;53.482;9.862;2023-09-18T02:15:58;18.25;18.25;13.50
23240;PMS7003;11789;53.482;9.862;2023-09-18T02:18:24;20.75;20.75;14.50
23240;PMS7003;11789;53.482;9.862;2023-09-18T02:20:49;23.25;21.75;16.75
23240;PMS7003;11789;53.482;9.862;2023-09-18T02:23:15;21.50;21.50;16.25
23240;PMS7003;11789;53.482;9.862;2023-09-18T02:25:41;23.50;22.00;16.75
23240;PMS7003;11789;53.482;9.862;2023-09-18T02:28:06;21.75;21.75;16.00
23240;PMS7003;11789;53.482;9.862;2023-09-18T02:30:32;21.50;20.25;14.25
23240;PMS7003;11789;53.482;9.862;2023-09-18T02:32:57;19.75;19.75;15.75
23240;PMS7003;11789;53.482;9.862;2023-09-18T02:35:24;16.25;16.25;13.75
23240;PMS7003;11789;53.482;9.862;2023-09-18T02:37:50;23.00;21.75;15.75
23240;PMS7003;11789;53.482;9.862;2023-09-18T02:40:16;24.25;23.50;16.25
23240;PMS7003;11789;53.482;9.862;2023-09-18T02:42:41;21.50;18.75;13.25
23240;PMS7003;11789;53.482;9.862;2023-09-18T02:45:07;23.50;22.25;15.00
23240;PMS7003;11789;53.482;9.862;2023-09-18T02:47:33;21.50;20.25;15.25
23240;PMS7003;11789;53.482;9.862;2023-09-18T02:49:59;21.50;21.50;15.50
23240;PMS7003;11789;53.482;9.862;2023-09-18T02:52:24;21.00;21.00;16.00
23240;PMS7003;11789;53.482;9.862;2023-09-18T02:54:50;21.25;21.25;15.75
23240;PMS7003;11789;53.482;9.862;2023-09-18T02:57:15;20.50;18.50;14.00
23240;PMS7003;11789;53.482;9.862;2023-09-18T02:59:41;19.50;18.00;14.50
23240;PMS7003;11789;53.482;9.862;2023-09-18T03:02:06;20.75;20.25;15.50
23240;PMS7003;11789;53.482;9.862;2023-09-18T03:04:32;21.75;21.75;16.00
23240;PMS7003;11789;53.482;9.862;2023-09-18T03:06:57;20.75;19.75;13.75
23240;PMS7003;11789;53.482;9.862;2023-09-18T03:09:23;23.25;22.75;15.25
23240;PMS7003;11789;53.482;9.862;2023-09-18T03:11:48;20.25;19.00;13.75
23240;PMS7003;11789;53.482;9.862;2023-09-18T03:14:14;23.00;18.50;14.00
23240;PMS7003;11789;53.482;9.862;2023-09-18T03:16:39;19.25;19.25;14.25
23240;PMS7003;11789;53.482;9.862;2023-09-18T03:19:05;20.50;20.50;15.25
23240;PMS7003;11789;53.482;9.862;2023-09-18T03:21:31;20.50;20.50;15.50
23240;PMS7003;11789;53.482;9.862;2023-09-18T03:23:58;21.75;21.00;14.75
23240;PMS7003;11789;53.482;9.862;2023-09-18T03:26:25;23.75;22.00;15.25
23240;PMS7003;11789;53.482;9.862;2023-09-18T03:28:50;23.50;22.00;15.50
23240;PMS7003;11789;53.482;9.862;2023-09-18T03:31:15;26.50;21.75;16.00
23240;PMS7003;11789;53.482;9.862;2023-09-18T03:33:41;22.25;21.25;15.25
23240;PMS7003;11789;53.482;9.862;2023-09-18T03:36:06;21.75;20.50;16.00
23240;PMS7003;11789;53.482;9.862;2023-09-18T03:38:33;20.75;20.75;15.75
23240;PMS7003;11789;53.482;9.862;2023-09-18T03:41:00;21.00;20.00;14.75
23240;PMS7003;11789;53.482;9.862;2023-09-18T03:43:26;20.50;17.00;13.50
23240;PMS7003;11789;53.482;9.862;2023-09-18T03:45:51;24.50;22.00;16.75
23240;PMS7003;11789;53.482;9.862;2023-09-18T03:48:17;20.00;20.00;15.50
23240;PMS7003;11789;53.482;9.862;2023-09-18T03:50:47;20.50;20.50;15.50
23240;PMS7003;11789;53.482;9.862;2023-09-18T03:53:12;24.00;24.00;15.25
23240;PMS7003;11789;53.482;9.862;2023-09-18T03:55:38;23.00;23.00;17.25
23240;PMS7003;11789;53.482;9.862;2023-09-18T03:58:04;25.25;25.25;15.50
23240;PMS7003;11789;53.482;9.862;2023-09-18T04:00:30;19.50;17.50;14.50
23240;PMS7003;11789;53.482;9.862;2023-09-18T04:02:55;23.75;22.25;15.25
23240;PMS7003;11789;53.482;9.862;2023-09-18T04:05:21;21.75;20.25;14.75
23240;PMS7003;11789;53.482;9.862;2023-09-18T04:07:47;23.00;21.25;14.50
23240;PMS7003;11789;53.482;9.862;2023-09-18T04:10:13;22.25;22.25;18.00
23240;PMS7003;11789;53.482;9.862;2023-09-18T04:12:49;22.75;22.75;17.25
23240;PMS7003;11789;53.482;9.862;2023-09-18T04:15:16;24.75;23.00;14.50
23240;PMS7003;11789;53.482;9.862;2023-09-18T04:17:43;26.00;21.75;16.75
23240;PMS7003;11789;53.482;9.862;2023-09-18T04:20:09;24.00;22.25;15.75
23240;PMS7003;11789;53.482;9.862;2023-09-18T04:22:35;19.25;19.25;14.00
23240;PMS7003;11789;53.482;9.862;2023-09-18T04:25:01;23.50;23.50;17.75
23240;PMS7003;11789;53.482;9.862;2023-09-18T04:27:30;21.75;20.00;14.75
23240;PMS7003;11789;53.482;9.862;2023-09-18T04:29:56;23.75;22.50;16.50
23240;PMS7003;11789;53.482;9.862;2023-09-18T04:32:21;22.25;22.25;15.00
23240;PMS7003;11789;53.482;9.862;2023-09-18T04:34:47;24.50;24.50;17.75
23240;PMS7003;11789;53.482;9.862;2023-09-18T04:37:12;21.75;20.00;15.25
23240;PMS7003;11789;53.482;9.862;2023-09-18T04:39:37;26.50;23.25;17.25
23240;PMS7003;11789;53.482;9.862;2023-09-18T04:42:03;21.25;21.25;16.50
23240;PMS7003;11789;53.482;9.862;2023-09-18T04:44:29;23.00;23.00;17.25
23240;PMS7003;11789;53.482;9.862;2023-09-18T04:46:55;22.50;22.00;15.00
23240;PMS7003;11789;53.482;9.862;2023-09-18T04:49:20;26.00;21.50;17.00
23240;PMS7003;11789;53.482;9.862;2023-09-18T04:51:46;26.00;22.25;17.50
23240;PMS7003;11789;53.482;9.862;2023-09-18T04:54:11;23.75;21.25;15.50
23240;PMS7003;11789;53.482;9.862;2023-09-18T04:56:37;25.50;23.00;17.50
23240;PMS7003;11789;53.482;9.862;2023-09-18T04:59:02;22.75;21.25;15.25
23240;PMS7003;11789;53.482;9.862;2023-09-18T05:01:28;24.75;24.00;17.25
23240;PMS7003;11789;53.482;9.862;2023-09-18T05:03:55;29.25;24.50;17.75
23240;PMS7003;11789;53.482;9.862;2023-09-18T05:06:20;21.00;19.25;16.00
23240;PMS7003;11789;53.482;9.862;2023-09-18T05:08:46;25.25;20.25;15.50
23240;PMS7003;11789;53.482;9.862;2023-09-18T05:11:11;23.75;22.50;16.25
23240;PMS7003;11789;53.482;9.862;2023-09-18T05:13:37;26.00;23.25;19.25
23240;PMS7003;11789;53.482;9.862;2023-09-18T05:16:02;29.75;23.25;17.25
23240;PMS7003;11789;53.482;9.862;2023-09-18T05:18:29;22.50;22.50;16.75
23240;PMS7003;11789;53.482;9.862;2023-09-18T05:20:54;23.50;22.00;15.50
23240;PMS7003;11789;53.482;9.862;2023-09-18T05:23:20;28.25;25.25;18.25
23240;PMS7003;11789;53.482;9.862;2023-09-18T05:25:45;22.50;21.75;15.25
23240;PMS7003;11789;53.482;9.862;2023-09-18T05:28:11;25.00;25.00;17.50
23240;PMS7003;11789;53.482;9.862;2023-09-18T05:30:36;25.00;21.00;15.50
23240;PMS7003;11789;53.482;9.862;2023-09-18T05:33:06;20.00;19.00;14.75
23240;PMS7003;11789;53.482;9.862;2023-09-18T05:35:36;19.75;18.50;14.50
23240;PMS7003;11789;53.482;9.862;2023-09-18T05:38:06;24.75;22.75;16.00
23240;PMS7003;11789;53.482;9.862;2023-09-18T05:40:32;23.50;22.50;15.25
23240;PMS7003;11789;53.482;9.862;2023-09-18T05:42:58;27.25;23.25;16.00
23240;PMS7003;11789;53.482;9.862;2023-09-18T05:45:24;21.50;21.50;16.00
23240;PMS7003;11789;53.482;9.862;2023-09-18T05:47:51;24.25;24.00;18.75
23240;PMS7003;11789;53.482;9.862;2023-09-18T05:50:18;22.50;20.75;16.25
23240;PMS7003;11789;53.482;9.862;2023-09-18T05:52:45;24.50;23.75;15.75
23240;PMS7003;11789;53.482;9.862;2023-09-18T05:55:11;21.75;19.75;14.00
23240;PMS7003;11789;53.482;9.862;2023-09-18T05:57:38;19.50;18.50;14.25
23240;PMS7003;11789;53.482;9.862;2023-09-18T06:00:03;22.50;21.00;15.00
23240;PMS7003;11789;53.482;9.862;2023-09-18T06:02:30;24.75;24.25;16.00
23240;PMS7003;11789;53.482;9.862;2023-09-18T06:04:56;20.00;20.00;15.75
23240;PMS7003;11789;53.482;9.862;2023-09-18T06:07:25;19.50;16.75;14.50
23240;PMS7003;11789;53.482;9.862;2023-09-18T06:09:51;23.25;23.25;16.25
23240;PMS7003;11789;53.482;9.862;2023-09-18T06:12:17;26.25;24.75;18.50
23240;PMS7003;11789;53.482;9.862;2023-09-18T06:14:42;23.00;23.00;15.75
23240;PMS7003;11789;53.482;9.862;2023-09-18T06:17:08;22.50;21.25;14.00
23240;PMS7003;11789;53.482;9.862;2023-09-18T06:19:34;20.50;20.50;16.00
23240;PMS7003;11789;53.482;9.862;2023-09-18T06:22:00;23.00;23.00;16.50
23240;PMS7003;11789;53.482;9.862;2023-09-18T06:24:26;19.25;16.75;13.00
23240;PMS7003;11789;53.482;9.862;2023-09-18T06:26:51;22.25;21.50;16.25
23240;PMS7003;11789;53.482;9.862;2023-09-18T06:29:18;20.75;20.75;15.00
23240;PMS7003;11789;53.482;9.862;2023-09-18T06:31:43;24.00;22.00;16.25
23240;PMS7003;11789;53.482;9.862;2023-09-18T06:34:09;20.25;20.25;15.75
23240;PMS7003;11789;53.482;9.862;2023-09-18T06:36:34;21.75;20.75;16.25
23240;PMS7003;11789;53.482;9.862;2023-09-18T06:39:00;21.25;19.75;15.25
23240;PMS7003;11789;53.482;9.862;2023-09-18T06:41:25;20.25;20.25;15.00
23240;PMS7003;11789;53.482;9.862;2023-09-18T06:43:51;25.50;23.75;16.50
23240;PMS7003;11789;53.482;9.862;2023-09-18T06:46:17;23.75;22.25;16.50
23240;PMS7003;11789;53.482;9.862;2023-09-18T06:48:42;23.00;22.00;17.00
23240;PMS7003;11789;53.482;9.862;2023-09-18T06:51:14;22.00;21.75;16.50
23240;PMS7003;11789;53.482;9.862;2023-09-18T06:53:40;22.50;21.00;15.50
23240;PMS7003;11789;53.482;9.862;2023-09-18T06:56:05;20.25;18.25;14.50
23240;PMS7003;11789;53.482;9.862;2023-09-18T06:58:31;22.00;21.25;14.75
23240;PMS7003;11789;53.482;9.862;2023-09-18T07:00:56;20.75;16.50;13.50
23240;PMS7003;11789;53.482;9.862;2023-09-18T07:03:22;23.25;21.75;15.25
23240;PMS7003;11789;53.482;9.862;2023-09-18T07:05:48;18.00;18.00;14.50
23240;PMS7003;11789;53.482;9.862;2023-09-18T07:08:14;21.25;21.25;16.50
23240;PMS7003;11789;53.482;9.862;2023-09-18T07:10:44;24.50;20.75;15.50
23240;PMS7003;11789;53.482;9.862;2023-09-18T07:13:10;22.75;22.25;16.00
23240;PMS7003;11789;53.482;9.862;2023-09-18T07:15:36;24.50;21.50;15.25
23240;PMS7003;11789;53.482;9.862;2023-09-18T07:18:02;22.50;18.50;14.50
23240;PMS7003;11789;53.482;9.862;2023-09-18T07:20:27;19.25;19.25;16.00
23240;PMS7003;11789;53.482;9.862;2023-09-18T07:22:53;24.75;21.50;15.25
23240;PMS7003;11789;53.482;9.862;2023-09-18T07:25:19;17.25;17.25;13.00
23240;PMS7003;11789;53.482;9.862;2023-09-18T07:27:44;19.50;17.75;13.75
23240;PMS7003;11789;53.482;9.862;2023-09-18T07:30:10;18.00;17.25;13.50
23240;PMS7003;11789;53.482;9.862;2023-09-18T07:32:38;20.75;18.75;14.25
23240;PMS7003;11789;53.482;9.862;2023-09-18T07:35:05;18.00;18.00;14.75
23240;PMS7003;11789;53.482;9.862;2023-09-18T07:37:34;18.00;18.00;15.50
23240;PMS7003;11789;53.482;9.862;2023-09-18T07:40:01;17.50;17.50;13.50
23240;PMS7003;11789;53.482;9.862;2023-09-18T07:42:27;20.00;20.00;14.75
23240;PMS7003;11789;53.482;9.862;2023-09-18T07:44:53;21.75;21.75;15.00
23240;PMS7003;11789;53.482;9.862;2023-09-18T07:47:19;20.75;18.50;14.25
23240;PMS7003;11789;53.482;9.862;2023-09-18T07:49:45;17.00;16.25;12.75
23240;PMS7003;11789;53.482;9.862;2023-09-18T07:52:10;18.25;18.25;14.50
23240;PMS7003;11789;53.482;9.862;2023-09-18T07:54:36;22.00;18.75;13.75
23240;PMS7003;11789;53.482;9.862;2023-09-18T07:57:01;18.25;18.25;15.25
23240;PMS7003;11789;53.482;9.862;2023-09-18T07:59:27;19.25;19.25;14.25
23240;PMS7003;11789;53.482;9.862;2023-09-18T08:01:53;17.50;16.25;13.00
23240;PMS7003;11789;53.482;9.862;2023-09-18T08:04:19;20.00;18.50;15.50
23240;PMS7003;11789;53.482;9.862;2023-09-18T08:06:45;19.25;18.25;13.25
23240;PMS7003;11789;53.482;9.862;2023-09-18T08:09:12;18.75;18.75;14.00
23240;PMS7003;11789;53.482;9.862;2023-09-18T08:11:41;24.75;22.75;15.25
23240;PMS7003;11789;53.482;9.862;2023-09-18T08:14:10;16.00;15.50;12.50
23240;PMS7003;11789;53.482;9.862;2023-09-18T08:16:37;19.50;19.50;15.25
23240;PMS7003;11789;53.482;9.862;2023-09-18T08:19:06;19.50;18.50;14.75
23240;PMS7003;11789;53.482;9.862;2023-09-18T08:21:32;19.75;18.50;15.00
23240;PMS7003;11789;53.482;9.862;2023-09-18T08:23:58;17.75;17.75;13.50
23240;PMS7003;11789;53.482;9.862;2023-09-18T08:26:23;18.75;17.50;14.50
23240;PMS7003;11789;53.482;9.862;2023-09-18T08:28:50;23.75;19.75;14.75
23240;PMS7003;11789;53.482;9.862;2023-09-18T08:31:16;19.25;18.00;13.75
23240;PMS7003;11789;53.482;9.862;2023-09-18T08:33:41;19.00;16.25;14.00
23240;PMS7003;11789;53.482;9.862;2023-09-18T08:36:08;17.75;17.50;13.75
23240;PMS7003;11789;53.482;9.862;2023-09-18T08:38:34;19.25;19.25;13.50
23240;PMS7003;11789;53.482;9.862;2023-09-18T08:40:59;21.50;18.75;14.00
23240;PMS7003;11789;53.482;9.862;2023-09-18T08:43:25;19.50;19.50;13.25
23240;PMS7003;11789;53.482;9.862;2023-09-18T08:45:52;20.50;20.50;14.75
23240;PMS7003;11789;53.482;9.862;2023-09-18T08:48:19;19.50;18.00;13.75
23240;PMS7003;11789;53.482;9.862;2023-09-18T08:50:45;18.75;16.00;13.25
23240;PMS7003;11789;53.482;9.862;2023-09-18T08:53:12;19.50;18.50;14.00
23240;PMS7003;11789;53.482;9.862;2023-09-18T08:55:38;18.00;18.00;13.50
23240;PMS7003;11789;53.482;9.862;2023-09-18T08:58:05;19.00;17.50;13.50
23240;PMS7003;11789;53.482;9.862;2023-09-18T09:00:32;15.75;15.75;12.50
23240;PMS7003;11789;53.482;9.862;2023-09-18T09:02:57;16.00;14.25;11.00
23240;PMS7003;11789;53.482;9.862;2023-09-18T09:05:24;17.25;15.50;13.00
23240;PMS7003;11789;53.482;9.862;2023-09-18T09:07:50;18.00;17.75;12.00
23240;PMS7003;11789;53.482;9.862;2023-09-18T09:10:16;13.25;13.25;11.00
23240;PMS7003;11789;53.482;9.862;2023-09-18T09:12:55;11.00;11.00;9.50
23240;PMS7003;11789;53.482;9.862;2023-09-18T09:15:25;15.00;15.00;11.33
23240;PMS7003;11789;53.482;9.862;2023-09-18T09:18:01;14.75;13.25;10.25
23240;PMS7003;11789;53.482;9.862;2023-09-18T09:20:32;15.25;14.00;10.25
23240;PMS7003;11789;53.482;9.862;2023-09-18T09:23:02;14.00;12.50;10.50
23240;PMS7003;11789;53.482;9.862;2023-09-18T09:25:29;15.25;14.25;10.00
23240;PMS7003;11789;53.482;9.862;2023-09-18T09:28:00;13.50;13.50;10.00
23240;PMS7003;11789;53.482;9.862;2023-09-18T09:30:30;12.33;12.00;10.00
23240;PMS7003;11789;53.482;9.862;2023-09-18T09:32:57;13.00;13.00;10.25
23240;PMS7003;11789;53.482;9.862;2023-09-18T09:35:24;15.33;13.33;10.00
23240;PMS7003;11789;53.482;9.862;2023-09-18T09:38:10;11.00;11.00;9.00
23240;PMS7003;11789;53.482;9.862;2023-09-18T09:40:40;16.67;16.67;11.33
23240;PMS7003;11789;53.482;9.862;2023-09-18T09:43:07;14.67;12.00;9.33
23240;PMS7003;11789;53.482;9.862;2023-09-18T09:45:34;13.00;12.00;10.00
23240;PMS7003;11789;53.482;9.862;2023-09-18T09:48:04;10.25;10.25;8.25
23240;PMS7003;11789;53.482;9.862;2023-09-18T09:50:31;12.00;12.00;9.00
23240;PMS7003;11789;53.482;9.862;2023-09-18T09:53:00;11.33;9.67;8.00
23240;PMS7003;11789;53.482;9.862;2023-09-18T09:55:26;12.00;10.00;9.00
23240;PMS7003;11789;53.482;9.862;2023-09-18T09:57:58;11.33;11.33;8.67
23240;PMS7003;11789;53.482;9.862;2023-09-18T10:01:02;9.33;9.33;8.00
23240;PMS7003;11789;53.482;9.862;2023-09-18T10:03:23;12.00;11.00;9.00
23240;PMS7003;11789;53.482;9.862;2023-09-18T10:05:50;13.33;10.67;7.67
23240;PMS7003;11789;53.482;9.862;2023-09-18T10:08:22;13.00;12.00;8.33
23240;PMS7003;11789;53.482;9.862;2023-09-18T10:10:54;16.75;13.25;8.75
23240;PMS7003;11789;53.482;9.862;2023-09-18T10:16:11;9.33;9.33;8.00
23240;PMS7003;11789;53.482;9.862;2023-09-18T10:18:44;14.33;11.00;9.33
23240;PMS7003;11789;53.482;9.862;2023-09-18T10:24:52;13.33;10.00;9.00
23240;PMS7003;11789;53.482;9.862;2023-09-18T10:27:22;11.33;11.33;9.00
23240;PMS7003;11789;53.482;9.862;2023-09-18T10:29:51;11.00;11.00;8.00
23240;PMS7003;11789;53.482;9.862;2023-09-18T10:32:19;9.50;9.50;8.00
23240;PMS7003;11789;53.482;9.862;2023-09-18T10:34:46;11.00;11.00;8.00
23240;PMS7003;11789;53.482;9.862;2023-09-18T10:37:13;13.50;12.00;9.00
23240;PMS7003;11789;53.482;9.862;2023-09-18T10:39:40;14.67;12.33;10.00
23240;PMS7003;11789;53.482;9.862;2023-09-18T10:42:07;13.33;13.33;11.00
23240;PMS7003;11789;53.482;9.862;2023-09-18T10:44:34;10.75;10.75;8.25
23240;PMS7003;11789;53.482;9.862;2023-09-18T10:47:02;9.25;9.25;7.75
23240;PMS7003;11789;53.482;9.862;2023-09-18T10:49:31;11.00;11.00;9.00
23240;PMS7003;11789;53.482;9.862;2023-09-18T10:51:57;10.75;10.75;8.00
23240;PMS7003;11789;53.482;9.862;2023-09-18T10:54:24;9.75;9.75;7.50
23240;PMS7003;11789;53.482;9.862;2023-09-18T10:56:51;9.75;9.75;8.00
23240;PMS7003;11789;53.482;9.862;2023-09-18T10:59:17;10.00;10.00;8.00
23240;PMS7003;11789;53.482;9.862;2023-09-18T11:01:44;10.00;10.00;7.67
23240;PMS7003;11789;53.482;9.862;2023-09-18T11:04:09;10.00;10.00;7.67
23240;PMS7003;11789;53.482;9.862;2023-09-18T11:09:30;10.00;9.00;7.00
23240;PMS7003;11789;53.482;9.862;2023-09-18T11:14:43;8.25;8.25;6.75
23240;PMS7003;11789;53.482;9.862;2023-09-18T11:17:32;10.25;9.25;7.50
23240;PMS7003;11789;53.482;9.862;2023-09-18T11:22:31;11.00;9.00;7.00
23240;PMS7003;11789;53.482;9.862;2023-09-18T11:25:28;10.33;9.00;7.00
23240;PMS7003;11789;53.482;9.862;2023-09-18T11:28:08;10.75;9.75;8.00
23240;PMS7003;11789;53.482;9.862;2023-09-18T11:30:49;12.25;10.25;8.00
23240;PMS7003;11789;53.482;9.862;2023-09-18T11:33:29;13.00;7.00;6.00
23240;PMS7003;11789;53.482;9.862;2023-09-18T11:35:55;7.25;7.25;6.00
23240;PMS7003;11789;53.482;9.862;2023-09-18T11:38:21;10.25;9.00;7.25
23240;PMS7003;11789;53.482;9.862;2023-09-18T11:40:48;8.25;8.25;7.25
23240;PMS7003;11789;53.482;9.862;2023-09-18T11:45:59;8.50;8.50;7.25
23240;PMS7003;11789;53.482;9.862;2023-09-18T11:48:27;10.50;7.25;6.75
23240;PMS7003;11789;53.482;9.862;2023-09-18T11:50:54;7.75;7.75;6.00
23240;PMS7003;11789;53.482;9.862;2023-09-18T11:53:21;8.00;8.00;6.25
23240;PMS7003;11789;53.482;9.862;2023-09-18T11:55:48;8.50;7.50;5.50
23240;PMS7003;11789;53.482;9.862;2023-09-18T11:58:14;11.33;9.00;7.00
23240;PMS7003;11789;53.482;9.862;2023-09-18T12:00:40;10.67;8.67;6.67
23240;PMS7003;11789;53.482;9.862;2023-09-18T12:05:51;8.50;7.75;5.25
23240;PMS7003;11789;53.482;9.862;2023-09-18T12:08:19;9.00;9.00;7.75
23240;PMS7003;11789;53.482;9.862;2023-09-18T12:10:47;11.00;9.00;6.00
23240;PMS7003;11789;53.482;9.862;2023-09-18T12:13:14;9.00;8.00;6.75
23240;PMS7003;11789;53.482;9.862;2023-09-18T12:15:40;7.00;7.00;6.00
23240;PMS7003;11789;53.482;9.862;2023-09-18T12:18:07;7.00;7.00;6.00
23240;PMS7003;11789;53.482;9.862;2023-09-18T12:20:34;9.00;8.00;6.50
23240;PMS7003;11789;53.482;9.862;2023-09-18T12:22:59;8.00;8.00;7.00
23240;PMS7003;11789;53.482;9.862;2023-09-18T12:25:25;10.67;8.00;6.33
23240;PMS7003;11789;53.482;9.862;2023-09-18T12:27:51;6.33;6.00;5.33
23240;PMS7003;11789;53.482;9.862;2023-09-18T12:30:18;7.75;7.50;6.25
23240;PMS7003;11789;53.482;9.862;2023-09-18T12:32:45;10.25;8.75;7.00
23240;PMS7003;11789;53.482;9.862;2023-09-18T12:35:16;7.00;7.00;5.50
23240;PMS7003;11789;53.482;9.862;2023-09-18T12:37:43;7.00;7.00;5.25
23240;PMS7003;11789;53.482;9.862;2023-09-18T12:40:25;7.67;7.67;7.00
23240;PMS7003;11789;53.482;9.862;2023-09-18T12:42:53;8.25;7.00;5.25
23240;PMS7003;11789;53.482;9.862;2023-09-18T12:45:20;9.00;7.75;6.00
23240;PMS7003;11789;53.482;9.862;2023-09-18T12:47:47;7.50;7.50;6.00
23240;PMS7003;11789;53.482;9.862;2023-09-18T12:50:13;12.00;7.33;6.00
23240;PMS7003;11789;53.482;9.862;2023-09-18T12:52:38;7.33;7.33;6.67
23240;PMS7003;11789;53.482;9.862;2023-09-18T12:55:05;7.00;7.00;5.75
23240;PMS7003;11789;53.482;9.862;2023-09-18T12:57:32;6.00;6.00;5.00
23240;PMS7003;11789;53.482;9.862;2023-09-18T12:59:58;5.75;5.75;5.25
23240;PMS7003;11789;53.482;9.862;2023-09-18T13:02:23;6.67;6.67;6.00
23240;PMS7003;11789;53.482;9.862;2023-09-18T13:04:55;5.33;5.33;4.33
23240;PMS7003;11789;53.482;9.862;2023-09-18T13:07:22;5.75;5.25;4.50
23240;PMS7003;11789;53.482;9.862;2023-09-18T13:09:58;7.25;6.50;5.00
23240;PMS7003;11789;53.482;9.862;2023-09-18T13:12:42;5.50;5.50;4.50
23240;PMS7003;11789;53.482;9.862;2023-09-18T13:15:27;7.00;7.00;5.50
23240;PMS7003;11789;53.482;9.862;2023-09-18T13:17:56;5.25;5.25;4.25
23240;PMS7003;11789;53.482;9.862;2023-09-18T13:20:27;7.25;7.00;5.75
23240;PMS7003;11789;53.482;9.862;2023-09-18T13:22:56;6.75;6.75;6.00
23240;PMS7003;11789;53.482;9.862;2023-09-18T13:25:25;7.75;6.75;5.75
23240;PMS7003;11789;53.482;9.862;2023-09-18T13:27:53;8.00;8.00;6.00
23240;PMS7003;11789;53.482;9.862;2023-09-18T13:30:19;8.25;8.25;6.50
23240;PMS7003;11789;53.482;9.862;2023-09-18T13:32:47;8.50;8.50;7.25
23240;PMS7003;11789;53.482;9.862;2023-09-18T13:35:16;8.00;8.00;7.00
23240;PMS7003;11789;53.482;9.862;2023-09-18T13:37:42;8.25;8.25;6.25
23240;PMS7003;11789;53.482;9.862;2023-09-18T13:40:08;10.00;8.50;6.50
23240;PMS7003;11789;53.482;9.862;2023-09-18T13:42:35;7.50;7.50;6.25
23240;PMS7003;11789;53.482;9.862;2023-09-18T13:45:01;8.00;7.75;6.25
23240;PMS7003;11789;53.482;9.862;2023-09-18T13:47:34;10.00;8.00;7.00
23240;PMS7003;11789;53.482;9.862;2023-09-18T13:50:01;10.00;8.00;7.00
23240;PMS7003;11789;53.482;9.862;2023-09-18T13:52:32;11.00;9.75;7.50
23240;PMS7003;11789;53.482;9.862;2023-09-18T13:54:59;8.00;8.00;6.00
23240;PMS7003;11789;53.482;9.862;2023-09-18T13:57:25;9.50;8.75;7.00
23240;PMS7003;11789;53.482;9.862;2023-09-18T13:59:51;7.67;7.00;6.00
23240;PMS7003;11789;53.482;9.862;2023-09-18T14:02:17;9.75;8.75;7.00
23240;PMS7003;11789;53.482;9.862;2023-09-18T14:04:44;13.00;8.75;7.00
23240;PMS7003;11789;53.482;9.862;2023-09-18T14:07:10;7.50;6.50;5.75
23240;PMS7003;11789;53.482;9.862;2023-09-18T14:09:37;11.25;8.00;7.00
23240;PMS7003;11789;53.482;9.862;2023-09-18T14:12:03;7.75;7.75;6.25
23240;PMS7003;11789;53.482;9.862;2023-09-18T14:14:32;9.25;7.75;6.50